sensor_id;sensor_type;location;lat;lon;timestamp;temperature;humidity
4433;DHT22;2229;48.708;9.706;2024-02-21T00:00:53;5.30;98.70
4433;DHT22;2229;48.708;9.706;2024-02-21T00:03:20;5.30;98.80
4433;DHT22;2229;48.708;9.706;2024-02-21T00:05:48;5.30;98.80
4433;DHT22;2229;48.708;9.706;2024-02-21T00:08:15;5.40;98.90
4433;DHT22;2229;48.708;9.706;2024-02-21T00:10:42;5.30;98.90
4433;DHT22;2229;48.708;9.706;2024-02-21T00:13:09;5.30;99.00
4433;DHT22;2229;48.708;9.706;2024-02-21T00:15:38;5.30;99.10
4433;DHT22;2229;48.708;9.706;2024-02-21T00:18:05;5.30;99.10
4433;DHT22;2229;48.708;9.706;2024-02-21T00:20:32;5.30;99.10
4433;DHT22;2229;48.708;9.706;2024-02-21T00:22:59;5.30;99.20
4433;DHT22;2229;48.708;9.706;2024-02-21T00:25:26;5.30;99.30
4433;DHT22;2229;48.708;9.706;2024-02-21T00:27:53;5.30;99.40
4433;DHT22;2229;48.708;9.706;2024-02-21T00:30:21;5.30;99.40
4433;DHT22;2229;48.708;9.706;2024-02-21T00:32:50;5.30;99.50
4433;DHT22;2229;48.708;9.706;2024-02-21T00:35:18;5.30;99.60
4433;DHT22;2229;48.708;9.706;2024-02-21T00:37:45;5.30;99.70
4433;DHT22;2229;48.708;9.706;2024-02-21T00:40:12;5.40;99.80
4433;DHT22;2229;48.708;9.706;2024-02-21T00:42:42;5.40;99.80
4433;DHT22;2229;48.708;9.706;2024-02-21T00:45:09;5.40;99.90
4433;DHT22;2229;48.708;9.706;2024-02-21T00:47:36;5.40;99.90
4433;DHT22;2229;48.708;9.706;2024-02-21T00:50:06;5.50;99.90
4433;DHT22;2229;48.708;9.706;2024-02-21T00:52:33;5.50;99.90
4433;DHT22;2229;48.708;9.706;2024-02-21T00:54:59;5.40;99.90
4433;DHT22;2229;48.708;9.706;2024-02-21T00:57:27;5.40;99.90
4433;DHT22;2229;48.708;9.706;2024-02-21T00:59:54;5.40;99.90
4433;DHT22;2229;48.708;9.706;2024-02-21T01:02:22;5.40;99.90
4433;DHT22;2229;48.708;9.706;2024-02-21T01:04:49;5.40;99.90
4433;DHT22;2229;48.708;9.706;2024-02-21T01:07:17;5.40;99.90
4433;DHT22;2229;48.708;9.706;2024-02-21T01:09:44;5.50;99.90
4433;DHT22;2229;48.708;9.706;2024-02-21T01:12:11;5.40;99.90
4433;DHT22;2229;48.708;9.706;2024-02-21T01:14:38;5.50;99.90
4433;DHT22;2229;48.708;9.706;2024-02-21T01:17:05;5.40;99.90
4433;DHT22;2229;48.708;9.706;2024-02-21T01:19:33;5.40;99.90
4433;DHT22;2229;48.708;9.706;2024-02-21T01:22:08;5.50;99.90
4433;DHT22;2229;48.708;9.706;2024-02-21T01:24:41;5.50;99.90
4433;DHT22;2229;48.708;9.706;2024-02-21T01:27:08;5.50;99.90
4433;DHT22;2229;48.708;9.706;2024-02-21T01:29:35;5.50;99.90
4433;DHT22;2229;48.708;9.706;2024-02-21T01:32:06;5.50;99.90
4433;DHT22;2229;48.708;9.706;2024-02-21T01:34:33;5.50;99.90
4433;DHT22;2229;48.708;9.706;2024-02-21T01:37:00;5.50;99.90
4433;DHT22;2229;48.708;9.706;2024-02-21T01:39:30;5.50;99.90
4433;DHT22;2229;48.708;9.706;2024-02-21T01:42:03;5.50;99.90
4433;DHT22;2229;48.708;9.706;2024-02-21T01:44:31;5.50;99.90
4433;DHT22;2229;48.708;9.706;2024-02-21T01:46:58;5.40;99.90
4433;DHT22;2229;48.708;9.706;2024-02-21T01:49:26;5.40;99.90
4433;DHT22;2229;48.708;9.706;2024-02-21T01:51:54;5.50;99.90
4433;DHT22;2229;48.708;9.706;2024-02-21T01:54:23;5.40;99.90
4433;DHT22;2229;48.708;9.706;2024-02-21T01:56:50;5.40;99.90
4433;DHT22;2229;48.708;9.706;2024-02-21T01:59:19;5.40;99.90
4433;DHT22;2229;48.708;9.706;2024-02-21T02:01:47;5.40;99.90
4433;DHT22;2229;48.708;9.706;2024-02-21T02:04:14;5.40;99.90
4433;DHT22;2229;48.708;9.706;2024-02-21T02:06:42;5.40;99.90
4433;DHT22;2229;48.708;9.706;2024-02-21T02:09:09;5.40;99.90
4433;DHT22;2229;48.708;9.706;2024-02-21T02:11:36;5.40;99.90
4433;DHT22;2229;48.708;9.706;2024-02-21T02:14:03;5.50;99.90
4433;DHT22;2229;48.708;9.706;2024-02-21T02:16:32;5.50;99.90
4433;DHT22;2229;48.708;9.706;2024-02-21T02:18:59;5.50;99.90
4433;DHT22;2229;48.708;9.706;2024-02-21T02:21:30;5.50;99.90
4433;DHT22;2229;48.708;9.706;2024-02-21T02:24:00;5.50;99.90
4433;DHT22;2229;48.708;9.706;2024-02-21T02:26:27;5.60;99.90
4433;DHT22;2229;48.708;9.706;2024-02-21T02:28:54;5.50;99.90
4433;DHT22;2229;48.708;9.706;2024-02-21T02:31:21;5.50;99.90
4433;DHT22;2229;48.708;9.706;2024-02-21T02:33:49;5.50;99.90
4433;DHT22;2229;48.708;9.706;2024-02-21T02:36:18;5.50;99.90
4433;DHT22;2229;48.708;9.706;2024-02-21T02:38:46;5.60;99.90
4433;DHT22;2229;48.708;9.706;2024-02-21T02:41:14;5.50;99.90
4433;DHT22;2229;48.708;9.706;2024-02-21T02:43:41;5.60;99.90
4433;DHT22;2229;48.708;9.706;2024-02-21T02:46:09;5.50;99.90
4433;DHT22;2229;48.708;9.706;2024-02-21T02:48:37;5.60;99.90
4433;DHT22;2229;48.708;9.706;2024-02-21T02:51:04;5.60;99.90
4433;DHT22;2229;48.708;9.706;2024-02-21T02:53:31;5.70;99.90
4433;DHT22;2229;48.708;9.706;2024-02-21T02:55:58;5.70;99.90
4433;DHT22;2229;48.708;9.706;2024-02-21T02:58:28;5.70;99.90
4433;DHT22;2229;48.708;9.706;2024-02-21T03:00:55;5.70;99.90
4433;DHT22;2229;48.708;9.706;2024-02-21T03:03:23;5.70;99.90
4433;DHT22;2229;48.708;9.706;2024-02-21T03:05:50;5.70;99.90
4433;DHT22;2229;48.708;9.706;2024-02-21T03:08:21;5.70;99.90
4433;DHT22;2229;48.708;9.706;2024-02-21T03:10:49;5.70;99.90
4433;DHT22;2229;48.708;9.706;2024-02-21T03:13:16;5.80;99.90
4433;DHT22;2229;48.708;9.706;2024-02-21T03:15:45;5.80;99.90
4433;DHT22;2229;48.708;9.706;2024-02-21T03:18:12;5.80;99.90
4433;DHT22;2229;48.708;9.706;2024-02-21T03:20:39;5.80;99.90
4433;DHT22;2229;48.708;9.706;2024-02-21T03:23:06;5.80;99.90
4433;DHT22;2229;48.708;9.706;2024-02-21T03:25:34;5.80;99.90
4433;DHT22;2229;48.708;9.706;2024-02-21T03:28:02;5.80;99.90
4433;DHT22;2229;48.708;9.706;2024-02-21T03:30:29;5.80;99.90
4433;DHT22;2229;48.708;9.706;2024-02-21T03:32:58;5.80;99.90
4433;DHT22;2229;48.708;9.706;2024-02-21T03:35:25;5.80;99.90
4433;DHT22;2229;48.708;9.706;2024-02-21T03:37:53;5.70;99.90
4433;DHT22;2229;48.708;9.706;2024-02-21T03:40:20;5.70;99.90
4433;DHT22;2229;48.708;9.706;2024-02-21T03:42:47;5.70;99.90
4433;DHT22;2229;48.708;9.706;2024-02-21T03:45:15;5.70;99.90
4433;DHT22;2229;48.708;9.706;2024-02-21T03:47:42;5.80;99.90
4433;DHT22;2229;48.708;9.706;2024-02-21T03:50:11;5.70;99.90
4433;DHT22;2229;48.708;9.706;2024-02-21T03:55:07;5.80;99.90
4433;DHT22;2229;48.708;9.706;2024-02-21T03:57:34;5.80;99.90
4433;DHT22;2229;48.708;9.706;2024-02-21T04:00:02;5.80;99.90
4433;DHT22;2229;48.708;9.706;2024-02-21T04:02:33;5.80;99.90
4433;DHT22;2229;48.708;9.706;2024-02-21T04:05:00;5.90;99.90
4433;DHT22;2229;48.708;9.706;2024-02-21T04:07:30;5.90;99.90
4433;DHT22;2229;48.708;9.706;2024-02-21T04:09:57;5.90;99.90
4433;DHT22;2229;48.708;9.706;2024-02-21T04:12:24;5.90;99.90
4433;DHT22;2229;48.708;9.706;2024-02-21T04:14:52;5.90;99.90
4433;DHT22;2229;48.708;9.706;2024-02-21T04:17:19;5.90;99.90
4433;DHT22;2229;48.708;9.706;2024-02-21T04:19:46;5.80;99.90
4433;DHT22;2229;48.708;9.706;2024-02-21T04:22:13;5.80;99.90
4433;DHT22;2229;48.708;9.706;2024-02-21T04:24:41;5.80;99.90
4433;DHT22;2229;48.708;9.706;2024-02-21T04:27:08;5.80;99.90
4433;DHT22;2229;48.708;9.706;2024-02-21T04:29:36;5.80;99.90
4433;DHT22;2229;48.708;9.706;2024-02-21T04:32:03;5.80;99.90
4433;DHT22;2229;48.708;9.706;2024-02-21T04:34:30;5.80;99.90
4433;DHT22;2229;48.708;9.706;2024-02-21T04:36:57;5.80;99.90
4433;DHT22;2229;48.708;9.706;2024-02-21T04:39:25;5.80;99.90
4433;DHT22;2229;48.708;9.706;2024-02-21T04:41:53;5.80;99.90
4433;DHT22;2229;48.708;9.706;2024-02-21T04:44:21;5.80;99.90
4433;DHT22;2229;48.708;9.706;2024-02-21T04:46:48;5.80;99.90
4433;DHT22;2229;48.708;9.706;2024-02-21T04:49:15;5.80;99.90
4433;DHT22;2229;48.708;9.706;2024-02-21T04:51:42;5.70;99.90
4433;DHT22;2229;48.708;9.706;2024-02-21T04:54:10;5.70;99.90
4433;DHT22;2229;48.708;9.706;2024-02-21T04:56:37;5.70;99.90
4433;DHT22;2229;48.708;9.706;2024-02-21T04:59:06;5.60;99.90
4433;DHT22;2229;48.708;9.706;2024-02-21T05:01:33;5.60;99.90
4433;DHT22;2229;48.708;9.706;2024-02-21T05:04:00;5.50;99.90
4433;DHT22;2229;48.708;9.706;2024-02-21T05:06:28;5.50;99.90
4433;DHT22;2229;48.708;9.706;2024-02-21T05:08:58;5.50;99.90
4433;DHT22;2229;48.708;9.706;2024-02-21T05:11:26;5.50;99.90
4433;DHT22;2229;48.708;9.706;2024-02-21T05:13:53;5.50;99.90
4433;DHT22;2229;48.708;9.706;2024-02-21T05:16:21;5.50;99.90
4433;DHT22;2229;48.708;9.706;2024-02-21T05:18:48;5.60;99.90
4433;DHT22;2229;48.708;9.706;2024-02-21T05:21:15;5.50;99.90
4433;DHT22;2229;48.708;9.706;2024-02-21T05:23:43;5.50;99.90
4433;DHT22;2229;48.708;9.706;2024-02-21T05:26:10;5.40;99.90
4433;DHT22;2229;48.708;9.706;2024-02-21T05:28:38;5.40;99.90
4433;DHT22;2229;48.708;9.706;2024-02-21T05:31:05;5.40;99.90
4433;DHT22;2229;48.708;9.706;2024-02-21T05:33:33;5.30;99.90
4433;DHT22;2229;48.708;9.706;2024-02-21T05:36:00;5.30;99.90
4433;DHT22;2229;48.708;9.706;2024-02-21T05:38:28;5.20;99.90
4433;DHT22;2229;48.708;9.706;2024-02-21T05:40:55;5.10;99.90
4433;DHT22;2229;48.708;9.706;2024-02-21T05:43:22;5.00;99.90
4433;DHT22;2229;48.708;9.706;2024-02-21T05:45:50;4.90;99.90
4433;DHT22;2229;48.708;9.706;2024-02-21T05:48:17;4.90;99.90
4433;DHT22;2229;48.708;9.706;2024-02-21T05:50:45;4.90;99.90
4433;DHT22;2229;48.708;9.706;2024-02-21T05:53:12;4.80;99.90
4433;DHT22;2229;48.708;9.706;2024-02-21T05:55:40;4.80;99.90
4433;DHT22;2229;48.708;9.706;2024-02-21T05:58:08;4.80;99.90
4433;DHT22;2229;48.708;9.706;2024-02-21T06:00:37;4.70;99.90
4433;DHT22;2229;48.708;9.706;2024-02-21T06:03:05;4.70;99.90
4433;DHT22;2229;48.708;9.706;2024-02-21T06:05:37;4.70;99.90
4433;DHT22;2229;48.708;9.706;2024-02-21T06:08:08;4.70;99.90
4433;DHT22;2229;48.708;9.706;2024-02-21T06:10:36;4.70;99.90
4433;DHT22;2229;48.708;9.706;2024-02-21T06:13:03;4.60;99.90
4433;DHT22;2229;48.708;9.706;2024-02-21T06:15:30;4.60;99.90
4433;DHT22;2229;48.708;9.706;2024-02-21T06:17:57;4.50;99.90
4433;DHT22;2229;48.708;9.706;2024-02-21T06:20:24;4.50;99.90
4433;DHT22;2229;48.708;9.706;2024-02-21T06:22:54;4.50;99.90
4433;DHT22;2229;48.708;9.706;2024-02-21T06:25:22;4.50;99.90
4433;DHT22;2229;48.708;9.706;2024-02-21T06:27:49;4.50;99.90
4433;DHT22;2229;48.708;9.706;2024-02-21T06:30:16;4.50;99.90
4433;DHT22;2229;48.708;9.706;2024-02-21T06:32:44;4.50;99.90
4433;DHT22;2229;48.708;9.706;2024-02-21T06:35:11;4.50;99.90
4433;DHT22;2229;48.708;9.706;2024-02-21T06:37:38;4.50;99.90
4433;DHT22;2229;48.708;9.706;2024-02-21T06:40:06;4.50;99.90
4433;DHT22;2229;48.708;9.706;2024-02-21T06:42:35;4.50;99.90
4433;DHT22;2229;48.708;9.706;2024-02-21T06:45:03;4.60;99.90
4433;DHT22;2229;48.708;9.706;2024-02-21T06:47:30;4.70;99.90
4433;DHT22;2229;48.708;9.706;2024-02-21T06:49:57;4.70;99.90
4433;DHT22;2229;48.708;9.706;2024-02-21T06:52:24;4.80;99.90
4433;DHT22;2229;48.708;9.706;2024-02-21T06:54:52;5.00;99.90
4433;DHT22;2229;48.708;9.706;2024-02-21T06:57:19;5.00;99.90
4433;DHT22;2229;48.708;9.706;2024-02-21T06:59:48;5.10;99.90
4433;DHT22;2229;48.708;9.706;2024-02-21T07:02:18;5.20;99.90
4433;DHT22;2229;48.708;9.706;2024-02-21T07:04:45;5.30;99.90
4433;DHT22;2229;48.708;9.706;2024-02-21T07:07:12;5.30;99.90
4433;DHT22;2229;48.708;9.706;2024-02-21T07:09:39;5.40;99.90
4433;DHT22;2229;48.708;9.706;2024-02-21T07:12:06;5.40;99.90
4433;DHT22;2229;48.708;9.706;2024-02-21T07:14:33;5.60;99.90
4433;DHT22;2229;48.708;9.706;2024-02-21T07:17:02;5.80;99.90
4433;DHT22;2229;48.708;9.706;2024-02-21T07:19:29;6.00;99.90
4433;DHT22;2229;48.708;9.706;2024-02-21T07:21:57;6.40;99.90
4433;DHT22;2229;48.708;9.706;2024-02-21T07:24:25;7.30;99.90
4433;DHT22;2229;48.708;9.706;2024-02-21T07:26:52;7.50;99.90
4433;DHT22;2229;48.708;9.706;2024-02-21T07:29:20;8.20;99.90
4433;DHT22;2229;48.708;9.706;2024-02-21T07:31:48;8.90;99.90
4433;DHT22;2229;48.708;9.706;2024-02-21T07:34:19;9.70;99.90
4433;DHT22;2229;48.708;9.706;2024-02-21T07:36:47;10.40;99.90
4433;DHT22;2229;48.708;9.706;2024-02-21T07:39:14;10.90;99.90
4433;DHT22;2229;48.708;9.706;2024-02-21T07:41:41;11.40;99.80
4433;DHT22;2229;48.708;9.706;2024-02-21T07:44:10;12.00;98.20
4433;DHT22;2229;48.708;9.706;2024-02-21T07:46:37;12.80;96.70
4433;DHT22;2229;48.708;9.706;2024-02-21T07:49:05;13.60;94.20
4433;DHT22;2229;48.708;9.706;2024-02-21T07:51:34;14.60;92.10
4433;DHT22;2229;48.708;9.706;2024-02-21T07:54:02;15.50;90.10
4433;DHT22;2229;48.708;9.706;2024-02-21T07:56:30;16.00;86.00
4433;DHT22;2229;48.708;9.706;2024-02-21T07:58:57;16.30;82.80
4433;DHT22;2229;48.708;9.706;2024-02-21T08:01:24;16.70;81.20
4433;DHT22;2229;48.708;9.706;2024-02-21T08:03:51;17.40;79.00
4433;DHT22;2229;48.708;9.706;2024-02-21T08:06:19;18.00;76.50
4433;DHT22;2229;48.708;9.706;2024-02-21T08:08:48;18.20;73.80
4433;DHT22;2229;48.708;9.706;2024-02-21T08:11:15;18.50;72.30
4433;DHT22;2229;48.708;9.706;2024-02-21T08:13:42;18.80;71.00
4433;DHT22;2229;48.708;9.706;2024-02-21T08:16:10;19.20;68.70
4433;DHT22;2229;48.708;9.706;2024-02-21T08:18:37;19.40;68.20
4433;DHT22;2229;48.708;9.706;2024-02-21T08:21:05;19.70;67.80
4433;DHT22;2229;48.708;9.706;2024-02-21T08:23:33;20.00;66.70
4433;DHT22;2229;48.708;9.706;2024-02-21T08:26:03;20.30;65.10
4433;DHT22;2229;48.708;9.706;2024-02-21T08:28:30;20.50;63.20
4433;DHT22;2229;48.708;9.706;2024-02-21T08:30:57;20.40;62.10
4433;DHT22;2229;48.708;9.706;2024-02-21T08:33:25;20.30;61.40
4433;DHT22;2229;48.708;9.706;2024-02-21T08:35:52;20.20;60.90
4433;DHT22;2229;48.708;9.706;2024-02-21T08:38:19;20.20;60.40
4433;DHT22;2229;48.708;9.706;2024-02-21T08:40:47;20.30;59.90
4433;DHT22;2229;48.708;9.706;2024-02-21T08:43:15;20.60;58.10
4433;DHT22;2229;48.708;9.706;2024-02-21T08:45:42;20.90;57.40
4433;DHT22;2229;48.708;9.706;2024-02-21T08:48:10;21.20;57.00
4433;DHT22;2229;48.708;9.706;2024-02-21T08:50:37;21.50;56.50
4433;DHT22;2229;48.708;9.706;2024-02-21T08:53:05;21.60;55.90
4433;DHT22;2229;48.708;9.706;2024-02-21T08:55:32;21.50;55.50
4433;DHT22;2229;48.708;9.706;2024-02-21T08:58:01;21.10;55.70
4433;DHT22;2229;48.708;9.706;2024-02-21T09:00:31;20.70;55.90
4433;DHT22;2229;48.708;9.706;2024-02-21T09:02:58;20.20;55.80
4433;DHT22;2229;48.708;9.706;2024-02-21T09:05:26;19.60;57.20
4433;DHT22;2229;48.708;9.706;2024-02-21T09:07:53;18.90;57.00
4433;DHT22;2229;48.708;9.706;2024-02-21T09:10:20;18.10;58.00
4433;DHT22;2229;48.708;9.706;2024-02-21T09:12:47;17.50;58.70
4433;DHT22;2229;48.708;9.706;2024-02-21T09:15:15;17.00;59.50
4433;DHT22;2229;48.708;9.706;2024-02-21T09:17:43;16.50;60.00
4433;DHT22;2229;48.708;9.706;2024-02-21T09:20:11;16.20;61.30
4433;DHT22;2229;48.708;9.706;2024-02-21T09:22:42;15.80;62.30
4433;DHT22;2229;48.708;9.706;2024-02-21T09:25:09;15.50;63.40
4433;DHT22;2229;48.708;9.706;2024-02-21T09:27:38;15.20;64.40
4433;DHT22;2229;48.708;9.706;2024-02-21T09:30:06;15.00;64.80
4433;DHT22;2229;48.708;9.706;2024-02-21T09:32:33;14.80;64.60
4433;DHT22;2229;48.708;9.706;2024-02-21T09:35:02;14.60;64.40
4433;DHT22;2229;48.708;9.706;2024-02-21T09:37:31;14.40;64.10
4433;DHT22;2229;48.708;9.706;2024-02-21T09:39:58;14.20;64.70
4433;DHT22;2229;48.708;9.706;2024-02-21T09:42:35;14.10;65.20
4433;DHT22;2229;48.708;9.706;2024-02-21T09:45:08;14.00;65.00
4433;DHT22;2229;48.708;9.706;2024-02-21T09:47:50;13.90;65.50
4433;DHT22;2229;48.708;9.706;2024-02-21T09:50:23;13.90;65.50
4433;DHT22;2229;48.708;9.706;2024-02-21T09:52:53;13.80;66.00
4433;DHT22;2229;48.708;9.706;2024-02-21T09:55:21;14.00;66.80
4433;DHT22;2229;48.708;9.706;2024-02-21T09:57:50;14.50;67.80
4433;DHT22;2229;48.708;9.706;2024-02-21T10:00:27;14.90;66.20
4433;DHT22;2229;48.708;9.706;2024-02-21T10:02:54;15.30;65.70
4433;DHT22;2229;48.708;9.706;2024-02-21T10:05:23;15.70;64.30
4433;DHT22;2229;48.708;9.706;2024-02-21T10:07:51;16.20;63.50
4433;DHT22;2229;48.708;9.706;2024-02-21T10:10:19;16.80;62.20
4433;DHT22;2229;48.708;9.706;2024-02-21T10:12:48;17.50;61.90
4433;DHT22;2229;48.708;9.706;2024-02-21T10:15:20;18.20;61.50
4433;DHT22;2229;48.708;9.706;2024-02-21T10:17:48;18.60;60.00
4433;DHT22;2229;48.708;9.706;2024-02-21T10:20:16;18.70;59.30
4433;DHT22;2229;48.708;9.706;2024-02-21T10:22:48;18.60;58.80
4433;DHT22;2229;48.708;9.706;2024-02-21T10:25:16;18.30;58.10
4433;DHT22;2229;48.708;9.706;2024-02-21T10:27:45;18.00;57.90
4433;DHT22;2229;48.708;9.706;2024-02-21T10:30:14;17.70;57.60
4433;DHT22;2229;48.708;9.706;2024-02-21T10:32:49;17.80;57.50
4433;DHT22;2229;48.708;9.706;2024-02-21T10:35:26;18.10;57.80
4433;DHT22;2229;48.708;9.706;2024-02-21T10:37:55;18.20;57.50
4433;DHT22;2229;48.708;9.706;2024-02-21T10:40:24;18.00;57.30
4433;DHT22;2229;48.708;9.706;2024-02-21T10:42:56;17.70;57.50
4433;DHT22;2229;48.708;9.706;2024-02-21T10:45:32;17.30;56.80
4433;DHT22;2229;48.708;9.706;2024-02-21T10:48:08;17.00;57.30
4433;DHT22;2229;48.708;9.706;2024-02-21T10:50:46;17.00;57.50
4433;DHT22;2229;48.708;9.706;2024-02-21T10:53:23;17.00;57.20
4433;DHT22;2229;48.708;9.706;2024-02-21T10:56:01;17.20;58.10
4433;DHT22;2229;48.708;9.706;2024-02-21T10:58:33;17.30;57.60
4433;DHT22;2229;48.708;9.706;2024-02-21T11:01:00;17.20;57.10
4433;DHT22;2229;48.708;9.706;2024-02-21T11:03:30;16.90;57.10
4433;DHT22;2229;48.708;9.706;2024-02-21T11:05:58;16.70;57.10
4433;DHT22;2229;48.708;9.706;2024-02-21T11:08:26;16.40;57.20
4433;DHT22;2229;48.708;9.706;2024-02-21T11:10:57;16.20;57.80
4433;DHT22;2229;48.708;9.706;2024-02-21T11:13:30;16.10;58.60
4433;DHT22;2229;48.708;9.706;2024-02-21T11:16:07;15.90;58.70
4433;DHT22;2229;48.708;9.706;2024-02-21T11:18:35;15.70;58.60
4433;DHT22;2229;48.708;9.706;2024-02-21T11:21:02;15.60;58.30
4433;DHT22;2229;48.708;9.706;2024-02-21T11:23:32;15.50;58.60
4433;DHT22;2229;48.708;9.706;2024-02-21T11:26:05;15.40;58.80
4433;DHT22;2229;48.708;9.706;2024-02-21T11:28:32;15.30;59.20
4433;DHT22;2229;48.708;9.706;2024-02-21T11:31:10;15.20;59.50
4433;DHT22;2229;48.708;9.706;2024-02-21T11:33:39;15.20;59.30
4433;DHT22;2229;48.708;9.706;2024-02-21T11:36:07;15.20;58.80
4433;DHT22;2229;48.708;9.706;2024-02-21T11:38:36;15.20;58.70
4433;DHT22;2229;48.708;9.706;2024-02-21T11:41:08;15.10;58.90
4433;DHT22;2229;48.708;9.706;2024-02-21T11:43:35;15.10;59.10
4433;DHT22;2229;48.708;9.706;2024-02-21T11:46:04;15.00;59.30
4433;DHT22;2229;48.708;9.706;2024-02-21T11:48:32;15.00;59.50
4433;DHT22;2229;48.708;9.706;2024-02-21T11:50:59;14.80;59.60
4433;DHT22;2229;48.708;9.706;2024-02-21T11:53:26;14.80;59.80
4433;DHT22;2229;48.708;9.706;2024-02-21T11:55:57;14.70;60.10
4433;DHT22;2229;48.708;9.706;2024-02-21T11:58:25;14.70;60.40
4433;DHT22;2229;48.708;9.706;2024-02-21T12:00:52;14.60;59.80
4433;DHT22;2229;48.708;9.706;2024-02-21T12:03:20;14.60;59.60
4433;DHT22;2229;48.708;9.706;2024-02-21T12:05:47;14.50;59.80
4433;DHT22;2229;48.708;9.706;2024-02-21T12:08:16;14.50;60.60
4433;DHT22;2229;48.708;9.706;2024-02-21T12:10:44;14.40;60.90
4433;DHT22;2229;48.708;9.706;2024-02-21T12:13:22;14.40;60.80
4433;DHT22;2229;48.708;9.706;2024-02-21T12:15:49;14.40;61.30
4433;DHT22;2229;48.708;9.706;2024-02-21T12:18:16;14.30;61.40
4433;DHT22;2229;48.708;9.706;2024-02-21T12:20:44;14.40;61.70
4433;DHT22;2229;48.708;9.706;2024-02-21T12:23:14;14.40;61.70
4433;DHT22;2229;48.708;9.706;2024-02-21T12:25:42;14.50;61.80
4433;DHT22;2229;48.708;9.706;2024-02-21T12:28:10;14.60;62.20
4433;DHT22;2229;48.708;9.706;2024-02-21T12:30:39;14.70;62.30
4433;DHT22;2229;48.708;9.706;2024-02-21T12:33:08;14.70;61.60
4433;DHT22;2229;48.708;9.706;2024-02-21T12:35:36;14.70;61.80
4433;DHT22;2229;48.708;9.706;2024-02-21T12:38:04;14.70;62.10
4433;DHT22;2229;48.708;9.706;2024-02-21T12:40:31;14.70;61.80
4433;DHT22;2229;48.708;9.706;2024-02-21T12:43:00;14.70;61.70
4433;DHT22;2229;48.708;9.706;2024-02-21T12:45:28;14.70;61.90
4433;DHT22;2229;48.708;9.706;2024-02-21T12:47:56;14.60;63.20
4433;DHT22;2229;48.708;9.706;2024-02-21T12:50:23;14.60;63.50
4433;DHT22;2229;48.708;9.706;2024-02-21T12:52:51;14.50;63.90
4433;DHT22;2229;48.708;9.706;2024-02-21T12:55:18;14.40;63.80
4433;DHT22;2229;48.708;9.706;2024-02-21T12:57:45;14.30;63.50
4433;DHT22;2229;48.708;9.706;2024-02-21T13:00:13;14.30;64.00
4433;DHT22;2229;48.708;9.706;2024-02-21T13:02:41;14.20;64.40
4433;DHT22;2229;48.708;9.706;2024-02-21T13:05:10;14.20;64.50
4433;DHT22;2229;48.708;9.706;2024-02-21T13:07:37;14.20;65.70
4433;DHT22;2229;48.708;9.706;2024-02-21T13:10:06;14.10;65.00
4433;DHT22;2229;48.708;9.706;2024-02-21T13:12:34;14.00;65.30
4433;DHT22;2229;48.708;9.706;2024-02-21T13:15:01;14.00;65.50
4433;DHT22;2229;48.708;9.706;2024-02-21T13:17:28;14.00;65.70
4433;DHT22;2229;48.708;9.706;2024-02-21T13:19:57;14.00;65.70
4433;DHT22;2229;48.708;9.706;2024-02-21T13:22:25;14.00;65.60
4433;DHT22;2229;48.708;9.706;2024-02-21T13:24:53;14.00;65.30
4433;DHT22;2229;48.708;9.706;2024-02-21T13:27:20;14.00;65.50
4433;DHT22;2229;48.708;9.706;2024-02-21T13:29:47;13.90;65.90
4433;DHT22;2229;48.708;9.706;2024-02-21T13:32:14;13.90;66.20
4433;DHT22;2229;48.708;9.706;2024-02-21T13:34:42;13.90;66.20
4433;DHT22;2229;48.708;9.706;2024-02-21T13:37:10;13.90;66.60
4433;DHT22;2229;48.708;9.706;2024-02-21T13:39:38;13.80;67.10
4433;DHT22;2229;48.708;9.706;2024-02-21T13:42:07;13.80;67.00
4433;DHT22;2229;48.708;9.706;2024-02-21T13:44:35;13.80;67.50
4433;DHT22;2229;48.708;9.706;2024-02-21T13:47:02;13.70;68.00
4433;DHT22;2229;48.708;9.706;2024-02-21T13:49:30;13.70;67.90
4433;DHT22;2229;48.708;9.706;2024-02-21T13:51:58;13.60;68.10
4433;DHT22;2229;48.708;9.706;2024-02-21T13:54:25;13.50;68.40
4433;DHT22;2229;48.708;9.706;2024-02-21T13:56:54;13.50;68.50
4433;DHT22;2229;48.708;9.706;2024-02-21T13:59:21;13.50;68.40
4433;DHT22;2229;48.708;9.706;2024-02-21T14:01:49;13.40;68.30
4433;DHT22;2229;48.708;9.706;2024-02-21T14:04:16;13.40;69.00
4433;DHT22;2229;48.708;9.706;2024-02-21T14:06:44;13.40;69.40
4433;DHT22;2229;48.708;9.706;2024-02-21T14:09:11;13.80;69.90
4433;DHT22;2229;48.708;9.706;2024-02-21T14:11:38;13.40;69.40
4433;DHT22;2229;48.708;9.706;2024-02-21T14:14:07;13.30;69.20
4433;DHT22;2229;48.708;9.706;2024-02-21T14:16:34;13.30;69.20
4433;DHT22;2229;48.708;9.706;2024-02-21T14:19:01;13.30;69.10
4433;DHT22;2229;48.708;9.706;2024-02-21T14:21:28;13.30;69.10
4433;DHT22;2229;48.708;9.706;2024-02-21T14:23:55;13.20;69.40
4433;DHT22;2229;48.708;9.706;2024-02-21T14:26:24;13.20;69.70
4433;DHT22;2229;48.708;9.706;2024-02-21T14:28:51;13.20;69.80
4433;DHT22;2229;48.708;9.706;2024-02-21T14:31:19;13.20;70.00
4433;DHT22;2229;48.708;9.706;2024-02-21T14:33:46;13.20;70.00
4433;DHT22;2229;48.708;9.706;2024-02-21T14:36:13;13.20;70.10
4433;DHT22;2229;48.708;9.706;2024-02-21T14:38:41;13.20;69.80
4433;DHT22;2229;48.708;9.706;2024-02-21T14:41:09;13.20;70.00
4433;DHT22;2229;48.708;9.706;2024-02-21T14:43:37;13.10;69.80
4433;DHT22;2229;48.708;9.706;2024-02-21T14:46:04;13.10;70.00
4433;DHT22;2229;48.708;9.706;2024-02-21T14:48:33;13.00;70.60
4433;DHT22;2229;48.708;9.706;2024-02-21T14:51:02;13.00;70.90
4433;DHT22;2229;48.708;9.706;2024-02-21T14:53:29;13.00;71.20
4433;DHT22;2229;48.708;9.706;2024-02-21T14:55:57;12.90;71.70
4433;DHT22;2229;48.708;9.706;2024-02-21T14:58:24;13.00;72.10
4433;DHT22;2229;48.708;9.706;2024-02-21T15:00:51;13.00;72.50
4433;DHT22;2229;48.708;9.706;2024-02-21T15:03:20;12.90;72.70
4433;DHT22;2229;48.708;9.706;2024-02-21T15:05:48;12.90;72.80
4433;DHT22;2229;48.708;9.706;2024-02-21T15:08:15;12.90;72.70
4433;DHT22;2229;48.708;9.706;2024-02-21T15:10:45;12.90;72.60
4433;DHT22;2229;48.708;9.706;2024-02-21T15:13:13;12.90;72.60
4433;DHT22;2229;48.708;9.706;2024-02-21T15:15:40;12.90;72.60
4433;DHT22;2229;48.708;9.706;2024-02-21T15:18:07;12.90;72.80
4433;DHT22;2229;48.708;9.706;2024-02-21T15:20:34;12.90;72.80
4433;DHT22;2229;48.708;9.706;2024-02-21T15:23:04;12.90;73.00
4433;DHT22;2229;48.708;9.706;2024-02-21T15:25:31;12.90;73.20
4433;DHT22;2229;48.708;9.706;2024-02-21T15:27:59;12.90;73.20
4433;DHT22;2229;48.708;9.706;2024-02-21T15:30:28;12.90;73.20
4433;DHT22;2229;48.708;9.706;2024-02-21T15:32:57;12.90;73.50
4433;DHT22;2229;48.708;9.706;2024-02-21T15:35:27;12.90;73.50
4433;DHT22;2229;48.708;9.706;2024-02-21T15:37:54;12.90;73.20
4433;DHT22;2229;48.708;9.706;2024-02-21T15:40:23;12.90;73.20
4433;DHT22;2229;48.708;9.706;2024-02-21T15:42:51;13.00;73.20
4433;DHT22;2229;48.708;9.706;2024-02-21T15:45:19;13.00;73.10
4433;DHT22;2229;48.708;9.706;2024-02-21T15:47:47;12.90;73.10
4433;DHT22;2229;48.708;9.706;2024-02-21T15:50:16;12.80;73.30
4433;DHT22;2229;48.708;9.706;2024-02-21T15:52:45;12.80;73.40
4433;DHT22;2229;48.708;9.706;2024-02-21T15:55:12;12.70;73.50
4433;DHT22;2229;48.708;9.706;2024-02-21T15:57:40;12.80;74.20
4433;DHT22;2229;48.708;9.706;2024-02-21T16:00:08;12.50;74.20
4433;DHT22;2229;48.708;9.706;2024-02-21T16:02:39;12.40;74.60
4433;DHT22;2229;48.708;9.706;2024-02-21T16:05:08;12.40;74.40
4433;DHT22;2229;48.708;9.706;2024-02-21T16:07:36;12.30;74.50
4433;DHT22;2229;48.708;9.706;2024-02-21T16:10:05;12.20;74.80
4433;DHT22;2229;48.708;9.706;2024-02-21T16:12:33;12.10;74.80
4433;DHT22;2229;48.708;9.706;2024-02-21T16:15:02;12.00;74.50
4433;DHT22;2229;48.708;9.706;2024-02-21T16:17:30;12.00;74.30